Red Hill, New Mexico
Current Conditions -  °F | °C
As of 7:15 PM on Saturday 22 Nov 2014 (Local Time) from KJTC Reporting Station
Clear Clear  
Wind Chill: 38°   Ceiling: Unl
Heat Index: 45°   Visibility: 10mi
Dew Point:   Wind: 15mph
Humidity: 23%   Direction: 230°SW
Pressure: 30.05"   Gusts: 25mph
Location:  34.3119°N, 108.79°W
Report Text: KJTC 230215Z AUTO 23013G22KT 10SM CLR 07/M13 A3005 RMK AO2
Loading
Personal Weather Stations






























Interactive Weather Map New forecast layout! Learn more

10-Day Weather Forecast

Advertisements
Track Severe Weather on mobile